createdAt,value
2023-03-22T00:00:45.998Z,80.85
2023-03-22T00:03:32.141Z,80.93
2023-03-22T00:06:18.990Z,80.78
2023-03-22T00:09:05.400Z,81.34
2023-03-22T00:11:52.005Z,81.44
2023-03-22T00:14:38.759Z,81.65
2023-03-22T00:17:26.914Z,81.54
2023-03-22T00:20:13.736Z,81.76
2023-03-22T00:23:00.807Z,82.09
2023-03-22T00:25:48.178Z,82.72
2023-03-22T00:28:35.715Z,82.87
2023-03-22T00:31:22.332Z,82.84
2023-03-22T00:34:09.227Z,83.07
2023-03-22T00:36:55.684Z,83.36
2023-03-22T00:39:42.504Z,83.72
2023-03-22T00:42:28.930Z,84.05
2023-03-22T00:45:15.596Z,84.42
2023-03-22T00:48:02.074Z,84.52
2023-03-22T00:50:48.813Z,84.75
2023-03-22T00:53:41.102Z,84.99
2023-03-22T00:56:29.250Z,84.97
2023-03-22T00:59:23.766Z,85.14
2023-03-22T01:02:14.084Z,85.22
2023-03-22T01:05:00.280Z,85.47
2023-03-22T01:07:50.034Z,85.77
2023-03-22T01:10:38.618Z,85.80
2023-03-22T01:13:25.243Z,85.87
2023-03-22T01:16:11.570Z,85.88
2023-03-22T01:18:58.571Z,86.17
2023-03-22T01:21:45.408Z,86.45
2023-03-22T01:24:32.428Z,86.52
2023-03-22T01:27:18.699Z,86.71
2023-03-22T01:30:06.636Z,86.81
2023-03-22T01:32:53.291Z,86.89
2023-03-22T01:35:39.748Z,86.55
2023-03-22T01:38:27.061Z,86.88
2023-03-22T01:41:17.148Z,86.81
2023-03-22T01:44:12.093Z,86.53
2023-03-22T01:46:58.662Z,86.89
2023-03-22T01:49:45.529Z,86.73
2023-03-22T01:52:31.767Z,86.93
2023-03-22T01:55:25.452Z,87.10
2023-03-22T01:58:37.459Z,86.74
2023-03-22T02:01:25.251Z,86.96
2023-03-22T02:04:22.862Z,86.90
2023-03-22T02:07:15.306Z,87.06
2023-03-22T02:10:03.525Z,86.91
2023-03-22T02:13:50.179Z,86.76
2023-03-22T02:17:59.157Z,86.42
2023-03-22T02:21:26.708Z,86.42
2023-03-22T02:25:05.837Z,86.33
2023-03-22T02:28:28.957Z,86.26
2023-03-22T02:31:49.162Z,86.35
2023-03-22T02:35:16.143Z,86.37
2023-03-22T02:38:26.578Z,86.29
2023-03-22T02:42:06.990Z,86.33
2023-03-22T02:45:04.726Z,86.64
2023-03-22T02:48:28.008Z,86.76
2023-03-22T02:51:23.927Z,86.84
2023-03-22T02:54:23.485Z,87.11
2023-03-22T02:57:20.193Z,87.20
2023-03-22T03:00:10.818Z,87.47
2023-03-22T03:03:10.539Z,87.88
2023-03-22T03:06:05.420Z,88.18
2023-03-22T03:08:57.363Z,88.65
2023-03-22T03:11:53.397Z,89.85
2023-03-22T03:14:40.330Z,90.09
2023-03-22T03:18:08.119Z,90.58
2023-03-22T03:21:50.568Z,91.35
2023-03-22T03:24:47.863Z,92.34
2023-03-22T03:27:49.192Z,93.01
2023-03-22T03:30:51.341Z,94.24
2023-03-22T03:33:47.767Z,94.37
2023-03-22T03:36:40.307Z,94.74
2023-03-22T03:39:32.716Z,95.70
2023-03-22T03:42:22.089Z,96.65
2023-03-22T03:45:09.744Z,97.02
2023-03-22T03:48:03.384Z,97.93
2023-03-22T03:50:53.493Z,98.39
2023-03-22T03:53:40.117Z,98.63
2023-03-22T03:56:26.818Z,99.09
2023-03-22T03:59:18.509Z,99.92
2023-03-22T04:02:06.207Z,99.78
2023-03-22T04:04:52.692Z,100.00
2023-03-22T04:07:39.718Z,99.97
2023-03-22T04:10:26.406Z,100.00
2023-03-22T04:13:12.785Z,100.00
2023-03-22T04:16:01.466Z,100.00
2023-03-22T04:18:50.803Z,100.00
2023-03-22T04:21:37.386Z,100.00
2023-03-22T04:24:23.948Z,100.00
2023-03-22T04:27:10.808Z,100.00
2023-03-22T04:30:19.715Z,100.00
2023-03-22T04:33:31.921Z,100.00
2023-03-22T04:36:38.814Z,100.00
2023-03-22T04:39:40.954Z,100.00
2023-03-22T04:42:50.745Z,100.00
2023-03-22T04:45:46.247Z,100.00
2023-03-22T04:48:40.817Z,100.00
2023-03-22T04:51:29.935Z,100.00
2023-03-22T04:54:42.348Z,100.00
2023-03-22T04:57:29.002Z,100.00
2023-03-22T05:00:17.995Z,100.00
2023-03-22T05:03:05.175Z,100.00
2023-03-22T05:06:07.522Z,100.00
2023-03-22T05:09:08.160Z,100.00
2023-03-22T05:11:55.217Z,100.00
2023-03-22T05:15:00.405Z,100.00
2023-03-22T05:17:50.349Z,100.00
2023-03-22T05:20:37.132Z,100.00
2023-03-22T05:23:36.534Z,100.00
2023-03-22T05:26:27.254Z,100.00
2023-03-22T05:29:14.084Z,100.00
2023-03-22T05:32:24.990Z,100.00
2023-03-22T05:35:13.503Z,100.00
2023-03-22T05:38:05.664Z,100.00
2023-03-22T05:40:54.106Z,100.00
2023-03-22T05:43:41.626Z,100.00
2023-03-22T05:46:29.907Z,100.00
2023-03-22T05:49:46.388Z,100.00
2023-03-22T05:52:32.738Z,100.00
2023-03-22T05:55:42.386Z,100.00
2023-03-22T05:58:31.096Z,100.00
2023-03-22T06:01:19.755Z,100.00
2023-03-22T06:04:06.258Z,100.00
2023-03-22T06:07:18.824Z,100.00
2023-03-22T06:10:13.968Z,100.00
2023-03-22T06:13:00.889Z,100.00
2023-03-22T06:15:49.414Z,100.00
2023-03-22T06:18:42.450Z,100.00
2023-03-22T06:21:30.933Z,100.00
2023-03-22T06:24:17.496Z,100.00
2023-03-22T06:27:05.979Z,100.00
2023-03-22T06:29:54.216Z,100.00
2023-03-22T06:32:42.996Z,100.00
2023-03-22T06:35:29.811Z,100.00
2023-03-22T06:38:16.838Z,100.00
2023-03-22T06:41:04.249Z,100.00
2023-03-22T06:43:50.751Z,100.00
2023-03-22T06:46:55.981Z,100.00
2023-03-22T06:50:01.273Z,100.00
2023-03-22T06:53:01.178Z,100.00
2023-03-22T06:55:47.962Z,100.00
2023-03-22T06:58:40.455Z,100.00
2023-03-22T07:01:27.192Z,100.00
2023-03-22T07:04:14.883Z,100.00
2023-03-22T07:07:02.787Z,100.00
2023-03-22T07:09:49.440Z,100.00
2023-03-22T07:12:36.191Z,100.00
2023-03-22T07:15:27.255Z,99.22
2023-03-22T07:18:28.285Z,98.71
2023-03-22T07:21:15.102Z,98.33
2023-03-22T07:24:02.805Z,98.41
2023-03-22T07:26:50.987Z,97.87
2023-03-22T07:29:39.662Z,97.26
2023-03-22T07:32:26.626Z,95.49
2023-03-22T07:35:39.111Z,94.21
2023-03-22T07:38:28.444Z,94.00
2023-03-22T07:41:14.873Z,94.42
2023-03-22T07:44:18.001Z,93.47
2023-03-22T07:47:39.481Z,92.32
2023-03-22T07:50:39.435Z,90.23
2023-03-22T07:53:26.438Z,86.95
2023-03-22T07:56:13.105Z,84.79
2023-03-22T07:58:59.976Z,82.58
2023-03-22T08:01:46.755Z,81.98
2023-03-22T08:04:46.438Z,80.89
2023-03-22T08:07:41.924Z,81.47
2023-03-22T08:10:31.119Z,81.52
2023-03-22T08:13:17.748Z,82.07
2023-03-22T08:16:05.740Z,82.34
2023-03-22T08:18:52.332Z,82.64
2023-03-22T08:21:39.800Z,82.78
2023-03-22T08:24:29.206Z,82.31
2023-03-22T08:27:24.928Z,80.27
2023-03-22T08:30:12.557Z,79.37
2023-03-22T08:32:59.224Z,78.99
2023-03-22T08:35:46.521Z,78.09
2023-03-22T08:38:33.400Z,76.76
2023-03-22T08:41:19.848Z,76.30
2023-03-22T08:44:06.645Z,76.46
2023-03-22T08:46:54.638Z,74.25
2023-03-22T08:49:41.502Z,70.95
2023-03-22T08:52:33.827Z,70.16
2023-03-22T08:55:24.263Z,68.74
2023-03-22T08:58:28.710Z,64.67
2023-03-22T09:01:38.504Z,57.97
2023-03-22T09:04:27.219Z,52.06
2023-03-22T09:07:14.129Z,50.14
2023-03-22T09:10:01.014Z,52.02
2023-03-22T09:12:48.398Z,51.62
2023-03-22T09:15:35.278Z,52.33
2023-03-22T09:18:28.493Z,51.20
2023-03-22T09:21:17.483Z,46.88
2023-03-22T09:24:17.718Z,44.60
2023-03-22T09:27:07.857Z,44.94
2023-03-22T09:29:54.949Z,44.28
2023-03-22T09:32:41.720Z,46.90
2023-03-22T09:35:30.426Z,48.97
2023-03-22T09:38:21.361Z,51.91
2023-03-22T09:41:20.637Z,54.26
2023-03-22T09:44:21.823Z,56.82
2023-03-22T09:47:17.277Z,59.12
2023-03-22T09:50:15.616Z,60.63
2023-03-22T09:53:02.244Z,61.81
2023-03-22T09:55:57.161Z,63.05
2023-03-22T09:59:04.184Z,63.49
2023-03-22T10:02:01.269Z,62.07
2023-03-22T10:05:31.274Z,59.46
2023-03-22T10:08:22.767Z,55.51
2023-03-22T10:11:34.237Z,52.90
2023-03-22T10:14:44.386Z,52.05
2023-03-22T10:17:31.371Z,51.61
2023-03-22T10:21:08.795Z,51.77
2023-03-22T10:24:16.645Z,50.88
2023-03-22T10:27:12.862Z,51.28
2023-03-22T10:30:23.913Z,53.07
2023-03-22T10:33:24.604Z,53.19
2023-03-22T10:36:14.397Z,50.08
2023-03-22T10:39:38.508Z,46.18
2023-03-22T10:42:29.890Z,43.35
2023-03-22T10:45:16.503Z,44.20
2023-03-22T10:48:19.130Z,44.76
2023-03-22T10:51:07.114Z,44.39
2023-03-22T10:53:57.536Z,42.53
2023-03-22T10:56:45.106Z,40.64
2023-03-22T10:59:51.614Z,39.36
2023-03-22T11:02:52.841Z,37.84
2023-03-22T11:05:39.534Z,37.00
2023-03-22T11:08:25.953Z,36.72
2023-03-22T11:11:29.469Z,36.18
2023-03-22T11:14:43.246Z,35.97
2023-03-22T11:17:30.532Z,36.54
2023-03-22T11:20:19.249Z,37.50
2023-03-22T11:23:06.427Z,38.31
2023-03-22T11:25:58.744Z,38.16
2023-03-22T11:28:50.583Z,36.98
2023-03-22T11:31:57.994Z,37.53
2023-03-22T11:34:45.432Z,39.40
2023-03-22T11:37:31.696Z,41.49
2023-03-22T11:40:34.979Z,43.24
2023-03-22T11:43:27.250Z,44.40
2023-03-22T11:46:18.721Z,43.32
2023-03-22T11:49:13.962Z,43.25
2023-03-22T11:52:10.560Z,44.27
2023-03-22T11:55:00.376Z,44.00
2023-03-22T11:57:48.597Z,43.74
2023-03-22T12:00:39.389Z,44.13
2023-03-22T12:03:35.529Z,45.16
2023-03-22T12:06:28.955Z,46.67
2023-03-22T12:09:48.432Z,48.48
2023-03-22T12:12:42.194Z,50.88
2023-03-22T12:15:36.934Z,52.08
2023-03-22T12:18:48.265Z,52.86
2023-03-22T12:21:34.890Z,53.55
2023-03-22T12:24:31.824Z,53.76
2023-03-22T12:27:33.644Z,54.75
2023-03-22T12:30:27.879Z,55.87
2023-03-22T12:33:50.975Z,56.78
2023-03-22T12:36:46.539Z,57.34
2023-03-22T12:40:01.416Z,57.89
2023-03-22T12:43:11.037Z,58.35
2023-03-22T12:46:01.432Z,58.97
2023-03-22T12:49:10.539Z,59.42
2023-03-22T12:52:13.475Z,59.93
2023-03-22T12:55:02.287Z,60.05
2023-03-22T12:57:51.830Z,60.40
2023-03-22T13:01:00.615Z,60.98
2023-03-22T13:03:54.177Z,61.55
2023-03-22T13:06:45.856Z,62.10
2023-03-22T13:09:41.894Z,62.98
2023-03-22T13:12:32.483Z,64.16
2023-03-22T13:15:41.746Z,64.58
2023-03-22T13:18:35.817Z,65.30
2023-03-22T13:21:47.888Z,65.78
2023-03-22T13:24:34.384Z,65.82
2023-03-22T13:27:20.910Z,66.05
2023-03-22T13:30:32.404Z,66.48
2023-03-22T13:33:27.979Z,66.69
2023-03-22T13:36:25.440Z,67.37
2023-03-22T13:39:16.441Z,67.74
2023-03-22T13:42:18.201Z,68.06
2023-03-22T13:45:32.817Z,67.99
2023-03-22T13:48:43.647Z,67.81
2023-03-22T13:51:32.637Z,67.49
2023-03-22T13:54:30.311Z,67.21
2023-03-22T13:57:45.801Z,67.14
2023-03-22T14:00:38.227Z,67.10
2023-03-22T14:03:36.808Z,66.82
2023-03-22T14:06:33.186Z,66.44
2023-03-22T14:09:39.145Z,66.42
2023-03-22T14:13:13.288Z,66.70
2023-03-22T14:16:21.196Z,67.21
2023-03-22T14:19:20.509Z,67.41
